Arapahoe, Wyoming
Current Conditions -  °F | °C
As of 7:53 PM on Monday 26 Jan 2015 (Local Time) from KRIW Reporting Station
Clear Clear  
Wind Chill: 29°   Ceiling: Unl
Heat Index: 34°   Visibility: 10mi
Dew Point: 27°   Wind: 6mph
Humidity: 75%   Direction: 270°W
Pressure: 30.21"   Gusts: NA
Location:  42.96°N, 108.49°W
Report Text: KRIW 270253Z AUTO 27005KT 10SM CLR 01/M03 A3021 RMK AO2 SLP257 T00111028 58000
Loading
Personal Weather Stations






























Interactive Weather Map New forecast layout! Learn more

10-Day Weather Forecast

Advertisements
Track Severe Weather on mobile